Portada
METAR-TAF:

METAR-TAF

Aeroports :

Barcelona, Veneçuela

latitud: 10-07N, longitud: 064-41W, altitud: 7 m

Observació

L'informe es va fer fa 35 minuts, a les 01:02 UTC
Temperatura
Pressió

METAR: SVBC 100102Z AUTO NIL

Hora: 21:37 (01:37 UTC)

Pronòstic

L'informe es va fer fa 3 hores i 37 minuts, a les 22:00 UTC
Pronòstic vàlid del 10 a les 00 UTC al 11 a les 00 UTC
Vent 4 kt del Nord-Est
Visibilitat 10 km o més
Cel ennuvolat a una alçada de 3000 ft
Evolucionant progressivament
l' 10 a les 00 UTC al 10 a les 04 UTC
Vent 8 kt del Est
Visibilitat: 9000 m
Cel ennuvolat a una alçada de 1600 ft
plugim

TAF: SVBC 092200Z 1000/1100 05004KT 9999 BKN030 TX34/1018Z TN24/1008Z BECMG 1000/1004 08008KT 9000 DZ BKN016

Observacions i pronòstics meteorològics de més de 4000 aeroports (METAR i TAF).

Les estacions disponibles són els punts grocs i vermells al mapa.

Posi el ratolí al punt desitjat per veure el nom de l'estació.

Feu clic per veure les observacions i els pronòstics meteorològics.

Per canviar el mapa: feu clic els botons verds amb una creu de color negre per apropar; al botó verd amb un guió per allunyar la imatge; o en les fletxes verdes per a mapes adjacents.


METAR-TAF: